createdAt,value
2024-05-09T00:00:35.925Z,102917.16
2024-05-09T00:03:08.144Z,102912.84
2024-05-09T00:05:35.997Z,102914.75
2024-05-09T00:08:03.514Z,102911.34
2024-05-09T00:10:36.252Z,102911.31
2024-05-09T00:13:05.708Z,102912.75
2024-05-09T00:15:33.520Z,102907.91
2024-05-09T00:18:00.684Z,102906.88
2024-05-09T00:20:35.937Z,102911.97
2024-05-09T00:23:07.472Z,102901.94
2024-05-09T00:25:34.638Z,102902.84
2024-05-09T00:28:01.410Z,102896.56
2024-05-09T00:30:33.876Z,102886.72
2024-05-09T00:33:04.391Z,102894.00
2024-05-09T00:35:31.737Z,102894.78
2024-05-09T00:37:58.511Z,102894.97
2024-05-09T00:40:35.333Z,102892.22
2024-05-09T00:43:06.925Z,102887.56
2024-05-09T00:45:36.590Z,102886.00
2024-05-09T00:48:07.511Z,102894.66
2024-05-09T00:50:38.080Z,102880.31
2024-05-09T00:53:11.453Z,102883.56
2024-05-09T00:55:39.253Z,102886.19
2024-05-09T00:58:09.626Z,102884.50
2024-05-09T01:00:39.913Z,102889.72
2024-05-09T01:03:10.537Z,102882.78
2024-05-09T01:05:39.790Z,102889.88
2024-05-09T01:08:07.795Z,102888.06
2024-05-09T01:10:36.148Z,102883.41
2024-05-09T01:13:03.999Z,102885.03
2024-05-09T01:15:30.756Z,102878.50
2024-05-09T01:17:58.421Z,102877.25
2024-05-09T01:20:36.559Z,102872.66
2024-05-09T01:23:09.429Z,102878.78
2024-05-09T01:25:36.547Z,102869.34
2024-05-09T01:28:03.294Z,102872.69
2024-05-09T01:30:34.803Z,102877.25
2024-05-09T01:33:04.859Z,102870.28
2024-05-09T01:35:32.175Z,102868.28
2024-05-09T01:37:58.925Z,102865.41
2024-05-09T01:40:35.522Z,102870.75
2024-05-09T01:43:05.061Z,102868.28
2024-05-09T01:45:31.751Z,102863.00
2024-05-09T01:47:58.898Z,102875.91
2024-05-09T01:50:37.063Z,102860.94
2024-05-09T01:53:07.618Z,102863.63
2024-05-09T01:55:34.453Z,102861.56
2024-05-09T01:58:01.187Z,102875.50
2024-05-09T02:00:37.928Z,102861.31
2024-05-09T02:03:15.375Z,102863.00
2024-05-09T02:05:48.482Z,102870.94
2024-05-09T02:08:19.335Z,102866.81
2024-05-09T02:10:47.851Z,102869.81
2024-05-09T02:13:15.879Z,102868.69
2024-05-09T02:15:42.753Z,102864.25
2024-05-09T02:18:10.413Z,102868.56
2024-05-09T02:20:41.320Z,102862.53
2024-05-09T02:23:08.952Z,102866.72
2024-05-09T02:25:35.834Z,102867.47
2024-05-09T02:28:02.602Z,102871.84
2024-05-09T02:30:38.353Z,102865.00
2024-05-09T02:33:09.475Z,102868.66
2024-05-09T02:35:37.524Z,102862.41
2024-05-09T02:38:04.557Z,102866.22
2024-05-09T02:40:37.497Z,102865.91
2024-05-09T02:43:07.197Z,102863.06
2024-05-09T02:45:34.301Z,102858.31
2024-05-09T02:48:01.868Z,102850.97
2024-05-09T02:50:37.041Z,102859.94
2024-05-09T02:53:06.948Z,102859.97
2024-05-09T02:55:34.456Z,102858.88
2024-05-09T02:58:01.131Z,102857.88
2024-05-09T03:00:36.668Z,102846.31
2024-05-09T03:03:08.232Z,102851.69
2024-05-09T03:05:35.982Z,102852.88
2024-05-09T03:08:02.982Z,102845.03
2024-05-09T03:10:35.484Z,102846.41
2024-05-09T03:13:08.932Z,102848.34
2024-05-09T03:15:35.897Z,102852.78
2024-05-09T03:18:03.327Z,102851.22
2024-05-09T03:20:34.338Z,102839.13
2024-05-09T03:23:03.216Z,102840.56
2024-05-09T03:25:30.098Z,102849.06
2024-05-09T03:27:56.831Z,102839.81
2024-05-09T03:30:38.466Z,102840.91
2024-05-09T03:33:14.032Z,102846.50
2024-05-09T03:35:41.957Z,102841.31
2024-05-09T03:38:09.061Z,102842.22
2024-05-09T03:40:35.906Z,102839.06
2024-05-09T03:43:02.584Z,102840.63
2024-05-09T03:45:29.267Z,102830.19
2024-05-09T03:47:56.044Z,102840.63
2024-05-09T03:50:29.944Z,102844.19
2024-05-09T03:53:03.913Z,102838.22
2024-05-09T03:55:31.127Z,102840.88
2024-05-09T03:57:57.907Z,102833.63
2024-05-09T04:00:31.450Z,102831.31
2024-05-09T04:03:05.786Z,102840.56
2024-05-09T04:05:33.877Z,102840.31
2024-05-09T04:08:00.890Z,102836.63
2024-05-09T04:10:32.851Z,102841.66
2024-05-09T04:13:01.414Z,102843.38
2024-05-09T04:15:29.465Z,102839.06
2024-05-09T04:17:56.483Z,102852.81
2024-05-09T04:20:34.024Z,102849.66
2024-05-09T04:23:06.835Z,102847.63
2024-05-09T04:25:33.971Z,102850.16
2024-05-09T04:28:00.646Z,102845.78
2024-05-09T04:30:36.356Z,102847.03
2024-05-09T04:33:07.496Z,102842.13
2024-05-09T04:35:35.768Z,102852.91
2024-05-09T04:38:02.764Z,102851.47
2024-05-09T04:40:34.116Z,102851.69
2024-05-09T04:43:03.904Z,102852.28
2024-05-09T04:45:30.866Z,102851.31
2024-05-09T04:47:57.929Z,102856.66
2024-05-09T04:50:33.293Z,102854.09
2024-05-09T04:53:04.843Z,102858.56
2024-05-09T04:55:31.722Z,102860.75
2024-05-09T04:57:58.414Z,102858.41
2024-05-09T05:00:32.710Z,102856.63
2024-05-09T05:03:07.035Z,102866.44
2024-05-09T05:05:37.619Z,102864.88
2024-05-09T05:08:04.906Z,102858.91
2024-05-09T05:10:36.064Z,102868.09
2024-05-09T05:13:17.226Z,102874.78
2024-05-09T05:15:48.255Z,102869.03
2024-05-09T05:18:16.277Z,102874.69
2024-05-09T05:20:43.561Z,102880.28
2024-05-09T05:23:12.407Z,102875.09
2024-05-09T05:25:39.757Z,102877.91
2024-05-09T05:28:06.731Z,102887.72
2024-05-09T05:30:35.268Z,102886.16
2024-05-09T05:33:02.353Z,102880.09
2024-05-09T05:35:29.278Z,102884.53
2024-05-09T05:37:56.564Z,102886.31
2024-05-09T05:40:32.204Z,102882.06
2024-05-09T05:43:06.169Z,102885.78
2024-05-09T05:45:32.871Z,102883.19
2024-05-09T05:48:00.148Z,102893.84
2024-05-09T05:50:32.827Z,102886.91
2024-05-09T05:53:03.414Z,102887.06
2024-05-09T05:55:30.159Z,102891.59
2024-05-09T05:57:56.832Z,102890.88
2024-05-09T06:00:29.942Z,102883.97
2024-05-09T06:03:04.830Z,102885.00
2024-05-09T06:05:32.154Z,102886.06
2024-05-09T06:07:59.144Z,102881.84
2024-05-09T06:10:30.259Z,102883.78
2024-05-09T06:13:04.231Z,102880.56
2024-05-09T06:15:30.837Z,102869.34
2024-05-09T06:17:57.630Z,102870.38
2024-05-09T06:20:33.885Z,102870.66
2024-05-09T06:23:03.586Z,102873.53
2024-05-09T06:25:30.304Z,102871.91
2024-05-09T06:27:57.235Z,102870.38
2024-05-09T06:30:30.507Z,102868.78
2024-05-09T06:33:05.701Z,102872.47
2024-05-09T06:35:33.109Z,102862.06
2024-05-09T06:38:00.061Z,102861.31
2024-05-09T06:40:35.978Z,102861.47
2024-05-09T06:43:05.387Z,102855.47
2024-05-09T06:45:32.023Z,102861.78
2024-05-09T06:47:58.842Z,102861.06
2024-05-09T06:50:28.554Z,102857.69
2024-05-09T06:53:02.058Z,102867.59
2024-05-09T06:55:28.886Z,102866.91
2024-05-09T06:57:55.454Z,102861.75
2024-05-09T07:00:27.765Z,102861.94
2024-05-09T07:03:05.728Z,102863.03
2024-05-09T07:05:33.626Z,102863.28
2024-05-09T07:08:00.342Z,102860.88
2024-05-09T07:10:33.003Z,102862.00
2024-05-09T07:13:02.071Z,102860.38
2024-05-09T07:15:28.688Z,102860.63
2024-05-09T07:17:55.654Z,102866.06
2024-05-09T07:20:31.740Z,102870.66
2024-05-09T07:23:03.141Z,102867.41
2024-05-09T07:25:30.188Z,102862.22
2024-05-09T07:27:57.034Z,102856.13
2024-05-09T07:30:32.533Z,102854.53
2024-05-09T07:33:01.511Z,102856.47
2024-05-09T07:35:29.018Z,102849.53
2024-05-09T07:37:55.830Z,102852.41
2024-05-09T07:40:32.304Z,102851.56
2024-05-09T07:43:06.735Z,102850.00
2024-05-09T07:52:23.293Z,102851.31
2024-05-09T07:53:38.909Z,102842.59
2024-05-09T07:56:07.523Z,102843.47
2024-05-09T07:58:34.488Z,102839.13
2024-05-09T08:01:02.760Z,102847.16
2024-05-09T08:03:29.643Z,102840.16
2024-05-09T08:05:56.480Z,102851.84
2024-05-09T08:08:23.333Z,102841.28
2024-05-09T08:10:50.835Z,102837.06
2024-05-09T08:13:17.583Z,102835.41
2024-05-09T08:15:44.403Z,102832.94
2024-05-09T08:18:11.623Z,102833.41
2024-05-09T08:20:39.013Z,102823.28
2024-05-09T08:23:05.837Z,102828.66
2024-05-09T08:25:32.535Z,102823.34
2024-05-09T08:27:59.189Z,102820.69
2024-05-09T08:30:32.855Z,102833.13
2024-05-09T08:33:04.725Z,102828.00
2024-05-09T08:35:32.375Z,102825.69
2024-05-09T08:37:59.194Z,102824.03
2024-05-09T08:40:33.425Z,102830.28
2024-05-09T08:43:05.102Z,102833.97
2024-05-09T08:45:33.372Z,102826.22
2024-05-09T08:48:01.520Z,102829.16
2024-05-09T08:50:35.939Z,102827.50
2024-05-09T08:53:06.098Z,102823.13
2024-05-09T08:55:32.907Z,102819.66
2024-05-09T08:58:02.723Z,102823.44
2024-05-09T09:00:36.778Z,102831.63
2024-05-09T09:03:09.322Z,102835.38
2024-05-09T09:05:39.153Z,102831.09
2024-05-09T09:08:08.222Z,102823.16
2024-05-09T09:10:35.692Z,102827.72
2024-05-09T09:13:07.155Z,102822.44
2024-05-09T09:15:33.983Z,102824.28
2024-05-09T09:18:01.421Z,102812.78
2024-05-09T09:20:35.625Z,102823.56
2024-05-09T09:23:04.327Z,102816.50
2024-05-09T09:25:31.226Z,102810.38
2024-05-09T09:27:58.737Z,102814.97
2024-05-09T09:30:35.142Z,102809.69
2024-05-09T09:33:05.636Z,102810.66
2024-05-09T09:35:32.807Z,102809.75
2024-05-09T09:38:02.681Z,102811.56
2024-05-09T09:40:37.117Z,102813.25
2024-05-09T09:43:14.554Z,102807.00
2024-05-09T09:45:43.418Z,102796.41
2024-05-09T09:48:10.888Z,102800.03
2024-05-09T09:50:38.883Z,102803.69
2024-05-09T09:53:07.463Z,102797.50
2024-05-09T09:55:35.637Z,102793.13
2024-05-09T09:58:04.445Z,102802.06
2024-05-09T10:00:33.696Z,102794.03
2024-05-09T10:03:01.726Z,102796.69
2024-05-09T10:05:29.797Z,102797.59
2024-05-09T10:07:58.588Z,102794.94
2024-05-09T10:10:32.256Z,102791.41
2024-05-09T10:13:09.142Z,102782.50
2024-05-09T10:15:52.426Z,102778.97
2024-05-09T10:18:28.089Z,102786.97
2024-05-09T10:20:56.943Z,102785.19
2024-05-09T10:23:30.962Z,102784.28
2024-05-09T10:25:59.058Z,102779.84
2024-05-09T10:28:27.176Z,102779.84
2024-05-09T10:31:07.802Z,102778.94
2024-05-09T10:33:47.677Z,102773.59
2024-05-09T10:36:22.559Z,102776.28
2024-05-09T10:38:50.738Z,102773.59
2024-05-09T10:41:18.387Z,102769.16
2024-05-09T10:43:45.218Z,102766.47
2024-05-09T10:46:12.290Z,102763.81
2024-05-09T10:48:42.450Z,102768.25
2024-05-09T10:51:09.877Z,102764.72
2024-05-09T10:53:44.377Z,102766.47
2024-05-09T10:56:11.519Z,102763.81
2024-05-09T10:58:38.194Z,102762.00
2024-05-09T11:01:07.112Z,102758.44
2024-05-09T11:03:35.506Z,102760.22
2024-05-09T11:06:02.769Z,102754.00
2024-05-09T11:08:31.861Z,102749.59
2024-05-09T11:10:59.794Z,102757.63
2024-05-09T11:13:27.214Z,102754.03
2024-05-09T11:15:54.029Z,102746.94
2024-05-09T11:18:25.468Z,102741.59
2024-05-09T11:20:54.129Z,102738.91
2024-05-09T11:23:22.919Z,102740.69
2024-05-09T11:25:50.648Z,102733.53
2024-05-09T11:28:18.930Z,102739.78
2024-05-09T11:30:45.917Z,102738.00
2024-05-09T11:33:16.930Z,102738.84
2024-05-09T11:35:44.130Z,102734.38
2024-05-09T11:38:10.855Z,102736.13
2024-05-09T11:40:38.439Z,102732.50
2024-05-09T11:43:08.094Z,102731.53
2024-05-09T11:45:34.935Z,102721.69
2024-05-09T11:48:01.899Z,102725.25
2024-05-09T11:50:33.120Z,102727.91
2024-05-09T11:53:02.340Z,102720.75
2024-05-09T11:55:29.327Z,102713.63
2024-05-09T11:57:56.942Z,102709.13
2024-05-09T12:00:33.009Z,102710.00
2024-05-09T12:03:05.195Z,102706.44
2024-05-09T12:05:32.856Z,102710.03
2024-05-09T12:08:00.596Z,102710.91
2024-05-09T12:10:33.118Z,102702.00
2024-05-09T12:13:03.136Z,102697.53
2024-05-09T12:15:30.915Z,102696.59
2024-05-09T12:18:00.057Z,102695.66
2024-05-09T12:20:35.619Z,102698.31
2024-05-09T12:23:05.511Z,102692.94
2024-05-09T12:25:32.255Z,102691.19
2024-05-09T12:27:59.043Z,102685.81
2024-05-09T12:30:35.182Z,102681.28
2024-05-09T12:33:05.978Z,102678.53
2024-05-09T12:35:33.050Z,102681.22
2024-05-09T12:37:59.926Z,102678.53
2024-05-09T12:40:34.715Z,102670.53
2024-05-09T12:43:04.994Z,102673.25
2024-05-09T12:45:31.930Z,102675.97
2024-05-09T12:47:58.936Z,102673.31
2024-05-09T12:50:31.983Z,102671.47
2024-05-09T12:53:01.115Z,102665.22
2024-05-09T12:55:28.681Z,102662.50
2024-05-09T12:57:58.818Z,102657.97
2024-05-09T13:00:31.678Z,102664.13
2024-05-09T13:03:01.319Z,102658.69
2024-05-09T13:05:28.436Z,102661.28
2024-05-09T13:07:56.820Z,102656.84
2024-05-09T13:10:31.053Z,102655.84
2024-05-09T13:13:00.362Z,102653.09
2024-05-09T13:15:27.431Z,102652.91
2024-05-09T13:17:56.355Z,102654.66
2024-05-09T13:20:31.256Z,102649.28
2024-05-09T13:23:02.024Z,102647.59
2024-05-09T13:25:28.743Z,102652.16
2024-05-09T13:27:56.583Z,102643.25
2024-05-09T13:30:29.797Z,102647.75
2024-05-09T13:33:05.888Z,102649.69
2024-05-09T13:35:34.844Z,102646.19
2024-05-09T13:38:02.414Z,102649.84
2024-05-09T13:40:33.778Z,102653.41
2024-05-09T13:43:03.208Z,102648.06
2024-05-09T13:45:30.114Z,102648.06
2024-05-09T13:47:57.176Z,102644.56
2024-05-09T13:50:32.934Z,102649.09
2024-05-09T13:53:02.648Z,102653.56
2024-05-09T13:55:29.313Z,102647.31
2024-05-09T13:57:56.361Z,102649.09
2024-05-09T14:00:37.459Z,102652.66
2024-05-09T14:03:10.073Z,102637.50
2024-05-09T14:05:36.948Z,102642.00
2024-05-09T14:08:04.183Z,102647.34
2024-05-09T14:10:32.181Z,102636.63
2024-05-09T14:13:00.376Z,102634.84
2024-05-09T14:15:27.179Z,102627.75
2024-05-09T14:17:55.000Z,102629.56
2024-05-09T14:22:51.149Z,102625.97
2024-05-09T14:25:17.913Z,102630.41
2024-05-09T14:27:44.685Z,102620.56
2024-05-09T14:30:18.309Z,102621.56
2024-05-09T14:32:52.725Z,102622.41
2024-05-09T14:35:19.620Z,102619.69
2024-05-09T14:37:46.302Z,102624.16
2024-05-09T14:40:30.347Z,102616.97
2024-05-09T14:43:03.196Z,102614.31
2024-05-09T14:45:30.123Z,102614.28
2024-05-09T14:47:57.060Z,102610.59
2024-05-09T14:50:32.205Z,102610.53
2024-05-09T14:53:03.039Z,102608.75
2024-05-09T14:55:29.705Z,102602.44
2024-05-09T14:57:56.448Z,102598.03
2024-05-09T15:00:28.883Z,102592.50
2024-05-09T15:03:00.556Z,102596.78
2024-05-09T15:05:27.519Z,102602.88
2024-05-09T15:07:56.982Z,102592.13
2024-05-09T15:10:31.544Z,102589.41
2024-05-09T15:13:02.127Z,102578.78
2024-05-09T15:15:28.767Z,102570.88
2024-05-09T15:17:55.841Z,102579.00
2024-05-09T15:20:31.022Z,102579.81
2024-05-09T15:23:02.548Z,102578.91
2024-05-09T15:25:29.438Z,102569.22
2024-05-09T15:27:56.343Z,102570.25
2024-05-09T15:30:30.217Z,102571.19
2024-05-09T15:32:59.315Z,102571.13
2024-05-09T15:35:25.941Z,102564.81
2024-05-09T15:37:52.649Z,102567.41
2024-05-09T15:40:30.386Z,102564.63
2024-05-09T15:43:04.557Z,102564.47
2024-05-09T15:45:31.464Z,102560.66
2024-05-09T15:47:58.507Z,102560.88
2024-05-09T15:50:35.360Z,102561.81
2024-05-09T15:53:06.456Z,102558.06
2024-05-09T15:55:34.114Z,102555.28
2024-05-09T15:58:02.812Z,102556.88
2024-05-09T16:00:37.387Z,102549.72
2024-05-09T16:03:08.008Z,102555.13
2024-05-09T16:05:34.826Z,102551.53
2024-05-09T16:08:01.714Z,102543.66
2024-05-09T16:10:32.701Z,102547.28
2024-05-09T16:13:01.603Z,102532.22
2024-05-09T16:15:28.810Z,102537.66
2024-05-09T16:17:56.085Z,102536.81
2024-05-09T16:20:34.192Z,102534.00
2024-05-09T16:23:06.378Z,102534.00
2024-05-09T16:25:33.308Z,102521.63
2024-05-09T16:28:00.305Z,102523.41
2024-05-09T16:30:31.942Z,102527.00
2024-05-09T16:33:02.813Z,102531.56
2024-05-09T16:35:29.750Z,102520.75
2024-05-09T16:37:57.342Z,102522.44
2024-05-09T16:40:33.090Z,102522.44
2024-05-09T16:43:04.848Z,102516.97
2024-05-09T16:45:32.074Z,102520.75
2024-05-09T16:47:59.760Z,102514.63
2024-05-09T16:50:32.301Z,102513.69
2024-05-09T16:53:01.157Z,102510.94
2024-05-09T16:55:27.979Z,102513.72
2024-05-09T16:57:55.749Z,102509.38
2024-05-09T17:00:34.804Z,102508.56
2024-05-09T17:03:07.924Z,102504.19
2024-05-09T17:05:36.371Z,102512.38
2024-05-09T17:08:03.654Z,102512.38
2024-05-09T17:10:33.651Z,102516.13
2024-05-09T17:13:03.673Z,102512.66
2024-05-09T17:15:32.506Z,102518.06
2024-05-09T17:17:59.477Z,102513.69
2024-05-09T17:20:32.573Z,102515.53
2024-05-09T17:23:03.161Z,102517.28
2024-05-09T17:25:29.936Z,102514.63
2024-05-09T17:27:57.005Z,102516.34
2024-05-09T17:30:32.107Z,102510.09
2024-05-09T17:33:03.861Z,102517.19
2024-05-09T17:35:31.993Z,102511.88
2024-05-09T17:37:59.790Z,102503.88
2024-05-09T17:40:33.107Z,102509.25
2024-05-09T17:43:03.401Z,102509.34
2024-05-09T17:45:30.609Z,102499.59
2024-05-09T17:47:57.822Z,102509.47
2024-05-09T17:50:31.577Z,102505.91
2024-05-09T17:53:02.610Z,102500.66
2024-05-09T17:55:29.741Z,102506.06
2024-05-09T17:57:56.953Z,102496.28
2024-05-09T18:00:36.093Z,102494.53
2024-05-09T18:03:06.636Z,102501.72
2024-05-09T18:05:35.901Z,102498.19
2024-05-09T18:08:03.589Z,102500.03
2024-05-09T18:10:36.139Z,102496.47
2024-05-09T18:13:06.354Z,102504.53
2024-05-09T18:15:33.723Z,102502.81
2024-05-09T18:18:01.599Z,102505.53
2024-05-09T18:20:37.622Z,102517.09
2024-05-09T18:23:10.420Z,102515.34
2024-05-09T18:25:37.216Z,102512.69
2024-05-09T18:28:04.574Z,102510.06
2024-05-09T18:30:35.139Z,102507.41
2024-05-09T18:33:05.856Z,102506.50
2024-05-09T18:35:33.915Z,102505.66
2024-05-09T18:38:00.810Z,102508.31
2024-05-09T18:40:33.279Z,102504.75
2024-05-09T18:43:04.669Z,102505.66
2024-05-09T18:45:32.466Z,102514.56
2024-05-09T18:47:59.614Z,102519.00
2024-05-09T18:50:34.365Z,102523.47
2024-05-09T18:53:08.349Z,102517.25
2024-05-09T18:55:35.235Z,102514.59
2024-05-09T18:58:02.313Z,102519.06
2024-05-09T19:00:35.340Z,102518.19
2024-05-09T19:03:09.330Z,102520.84
2024-05-09T19:05:38.435Z,102523.53
2024-05-09T19:08:06.297Z,102523.53
2024-05-09T19:10:35.008Z,102523.56
2024-05-09T19:13:06.857Z,102522.69
2024-05-09T19:15:37.703Z,102511.09
2024-05-09T19:18:04.941Z,102523.56
2024-05-09T19:20:34.658Z,102520.00
2024-05-09T19:23:03.035Z,102519.13
2024-05-09T19:25:29.741Z,102525.34
2024-05-09T19:27:56.539Z,102526.19
2024-05-09T19:30:30.501Z,102528.00
2024-05-09T19:33:05.849Z,102530.66
2024-05-09T19:35:32.981Z,102526.22
2024-05-09T19:37:59.945Z,102528.88
2024-05-09T19:40:31.563Z,102522.66
2024-05-09T19:43:01.707Z,102520.88
2024-05-09T19:45:29.011Z,102523.53
2024-05-09T19:47:56.511Z,102521.75
2024-05-09T19:50:32.121Z,102521.75
2024-05-09T19:53:06.736Z,102521.75
2024-05-09T19:55:33.745Z,102521.75
2024-05-09T19:58:04.848Z,102528.84
2024-05-09T20:00:38.974Z,102528.84
2024-05-09T20:03:08.310Z,102522.63
2024-05-09T20:05:36.004Z,102528.84
2024-05-09T20:08:04.854Z,102524.38
2024-05-09T20:10:33.906Z,102524.38
2024-05-09T20:13:02.867Z,102525.25
2024-05-09T20:15:30.101Z,102524.38
2024-05-09T20:17:57.179Z,102533.25
2024-05-09T20:20:32.872Z,102532.38
2024-05-09T20:23:08.012Z,102532.34
2024-05-09T20:25:34.652Z,102528.75
2024-05-09T20:28:01.503Z,102533.22
2024-05-09T20:30:32.417Z,102530.53
2024-05-09T20:33:03.035Z,102530.53
2024-05-09T20:35:32.420Z,102540.28
2024-05-09T20:37:59.633Z,102544.69
2024-05-09T20:40:32.526Z,102541.13
2024-05-09T20:43:02.813Z,102538.44
2024-05-09T20:45:29.654Z,102539.28
2024-05-09T20:47:57.347Z,102537.50
2024-05-09T20:50:34.923Z,102545.50
2024-05-09T20:53:05.751Z,102543.69
2024-05-09T20:55:32.551Z,102545.44
2024-05-09T20:57:59.355Z,102545.41
2024-05-09T21:00:34.968Z,102546.25
2024-05-09T21:03:07.206Z,102546.19
2024-05-09T21:05:35.193Z,102544.38
2024-05-09T21:08:02.340Z,102540.78
2024-05-09T21:10:32.861Z,102539.91
2024-05-09T21:13:01.519Z,102543.44
2024-05-09T21:15:28.704Z,102541.66
2024-05-09T21:17:55.395Z,102545.16
2024-05-09T21:20:28.746Z,102538.03
2024-05-09T21:22:58.491Z,102541.56
2024-05-09T21:25:25.352Z,102546.88
2024-05-09T21:27:52.458Z,102536.19
2024-05-09T21:30:28.450Z,102535.28
2024-05-09T21:33:05.157Z,102541.44
2024-05-09T21:35:31.968Z,102545.84
2024-05-09T21:37:58.687Z,102544.91
2024-05-09T21:40:31.644Z,102534.28
2024-05-09T21:43:01.756Z,102532.44
2024-05-09T21:45:28.465Z,102538.59
2024-05-09T21:47:55.291Z,102538.53
2024-05-09T21:50:28.738Z,102543.81
2024-05-09T21:53:06.993Z,102541.22
2024-05-09T21:55:33.974Z,102535.97
2024-05-09T21:58:00.888Z,102536.03
2024-05-09T22:00:35.447Z,102538.69
2024-05-09T22:03:05.742Z,102539.59
2024-05-09T22:05:33.067Z,102528.03
2024-05-09T22:07:59.907Z,102540.47
2024-05-09T22:10:32.834Z,102534.25
2024-05-09T22:13:02.116Z,102536.88
2024-05-09T22:15:28.960Z,102536.84
2024-05-09T22:17:57.306Z,102534.97
2024-05-09T22:20:33.492Z,102539.41
2024-05-09T22:23:04.376Z,102535.00
2024-05-09T22:25:32.063Z,102532.34
2024-05-09T22:27:59.406Z,102531.44
2024-05-09T22:30:33.726Z,102532.16
2024-05-09T22:33:05.347Z,102532.94
2024-05-09T22:35:32.330Z,102538.22
2024-05-09T22:37:59.017Z,102532.84
2024-05-09T22:40:37.933Z,102533.75
2024-05-09T22:43:12.745Z,102536.41
2024-05-09T22:45:39.712Z,102540.75
2024-05-09T22:48:07.979Z,102546.00
2024-05-09T22:50:34.830Z,102539.84
2024-05-09T22:53:01.545Z,102546.06
2024-05-09T22:55:28.262Z,102542.56
2024-05-09T22:57:55.152Z,102532.78
2024-05-09T23:00:29.469Z,102538.09
2024-05-09T23:03:02.258Z,102536.31
2024-05-09T23:05:29.543Z,102537.13
2024-05-09T23:07:56.484Z,102541.50
2024-05-09T23:10:31.067Z,102539.72
2024-05-09T23:13:02.622Z,102546.81
2024-05-09T23:15:29.498Z,102537.84
2024-05-09T23:17:57.337Z,102542.25
2024-05-09T23:20:33.008Z,102536.88
2024-05-09T23:23:04.651Z,102540.34
2024-05-09T23:25:31.265Z,102542.91
2024-05-09T23:27:57.965Z,102535.81
2024-05-09T23:30:33.943Z,102537.63
2024-05-09T23:33:05.775Z,102534.97
2024-05-09T23:35:32.666Z,102530.50
2024-05-09T23:37:59.606Z,102526.00
2024-05-09T23:40:37.018Z,102526.84
2024-05-09T23:43:07.347Z,102536.50
2024-05-09T23:45:34.468Z,102538.28
2024-05-09T23:48:01.525Z,102528.53
2024-05-09T23:50:35.525Z,102530.25
2024-05-09T23:53:05.830Z,102530.25
2024-05-09T23:55:32.940Z,102531.16
2024-05-09T23:57:59.831Z,102531.06
